Time;durP1;ratioP1;P1;durP2;ratioP2;P2;SDS_P1;SDS_P2;PMS_P1;PMS_P2;Temp;Humidity;BMP_temperature;BMP_pressure;BME280_temperature;BME280_humidity;BME280_pressure;Samples;Min_cycle;Max_cycle;Signal;HPM_P1;HPM_P2
2022/01/27 00:01:27;;;;;;;7.95;6.53;;;;;;;0.97;70.73;95015.23;830013;71;31665;-83
2022/01/27 00:16:15;;;;;;;8.28;6.40;;;;;;;1.06;70.65;95007.98;829102;71;30280;-83
2022/01/27 00:31:09;;;;;;;7.58;6.22;;;;;;;1.09;70.51;95005.45;834386;71;30877;-83
2022/01/27 00:46:16;;;;;;;8.30;5.65;;;;;;;1.12;70.06;95003.23;828270;71;31650;-82
2022/01/27 01:01:21;;;;;;;9.10;7.12;;;;;;;1.10;69.98;95005.25;833800;71;32751;-83
2022/01/27 01:16:30;;;;;;;12.43;7.22;;;;;;;1.05;69.46;94988.30;829264;70;32777;-86
2022/01/27 01:46:09;;;;;;;13.83;7.62;;;;;;;1.06;69.54;94978.77;828196;71;30025;-85
2022/01/27 02:01:15;;;;;;;9.90;6.90;;;;;;;1.02;69.72;94964.20;828518;71;32713;-83
2022/01/27 02:31:13;;;;;;;6.62;4.53;;;;;;;1.02;70.00;94937.58;834085;71;32116;-86
2022/01/27 02:46:12;;;;;;;5.00;3.77;;;;;;;1.04;70.07;94942.03;835824;69;29951;-84
2022/01/27 03:01:21;;;;;;;3.45;3.00;;;;;;;1.11;69.85;94946.09;829297;70;32615;-83
2022/01/27 03:16:08;;;;;;;2.70;2.50;;;;;;;1.18;69.75;94944.73;828680;71;29759;-83
2022/01/27 03:31:09;;;;;;;3.00;2.80;;;;;;;1.24;69.85;94945.64;834603;71;30836;-84
2022/01/27 03:46:09;;;;;;;3.90;3.50;;;;;;;1.24;69.84;94946.94;835835;69;29861;-84
2022/01/27 04:01:08;;;;;;;3.47;3.17;;;;;;;1.24;69.61;94962.44;834083;71;29684;-84
2022/01/27 04:16:08;;;;;;;3.65;3.35;;;;;;;1.20;70.38;94959.02;834031;71;29701;-85
2022/01/27 04:31:10;;;;;;;3.87;3.52;;;;;;;1.24;70.59;94977.47;828084;71;30400;-82
2022/01/27 05:01:20;;;;;;;4.87;4.47;;;;;;;1.20;71.31;94991.32;826991;71;33173;-84
2022/01/27 05:16:09;;;;;;;5.40;4.90;;;;;;;1.19;71.95;95000.58;828150;71;30414;-83
2022/01/27 05:31:08;;;;;;;6.10;5.10;;;;;;;1.18;72.13;95013.22;834363;71;29721;-81
2022/01/27 05:46:15;;;;;;;5.80;5.30;;;;;;;1.16;72.60;95021.19;827625;71;32676;-75
2022/01/27 06:01:10;;;;;;;7.85;6.40;;;;;;;1.46;72.41;95024.34;818366;71;30223;-77
2022/01/27 06:16:16;;;;;;;10.65;8.53;;;;;;;1.59;72.27;95042.27;819363;71;33028;-77
2022/01/27 06:31:09;;;;;;;7.50;6.70;;;;;;;1.66;72.32;95053.82;800207;74;30662;-77
2022/01/27 06:46:10;;;;;;;9.35;8.08;;;;;;;1.74;72.04;95057.40;827417;71;30277;-76
2022/01/27 07:01:16;;;;;;;7.90;6.80;;;;;;;1.86;71.47;95051.50;832880;71;33135;-76
2022/01/27 07:16:10;;;;;;;10.05;7.58;;;;;;;1.99;71.15;95050.83;827842;71;30361;-78
2022/01/27 07:31:13;;;;;;;10.03;7.12;;;;;;;2.15;70.59;95066.25;822687;71;32596;-77
2022/01/27 07:46:11;;;;;;;7.22;6.05;;;;;;;2.30;69.94;95074.89;833763;71;29705;-77
2022/01/27 08:01:08;;;;;;;10.05;6.87;;;;;;;2.30;70.37;95086.55;829476;71;29748;-78
2022/01/27 08:16:10;;;;;;;10.45;8.03;;;;;;;2.38;70.95;95085.45;827533;71;29728;-75
2022/01/27 08:31:17;;;;;;;10.43;8.65;;;;;;;2.51;70.68;95093.01;824530;71;32820;-77
2022/01/27 08:46:16;;;;;;;13.03;9.23;;;;;;;2.62;70.41;95099.25;826581;71;32716;-76
2022/01/27 09:46:19;;;;;;;14.78;11.30;;;;;;;2.87;70.62;95085.31;826718;71;33030;-75
2022/01/27 10:01:11;;;;;;;14.85;11.53;;;;;;;3.25;69.29;95078.91;827520;71;30339;-78
2022/01/27 10:16:36;;;;;;;17.60;11.88;;;;;;;3.46;68.04;95077.00;833587;71;32748;-77
2022/01/27 10:31:24;;;;;;;14.95;10.72;;;;;;;3.83;66.05;95075.91;827912;71;32054;-80
2022/01/27 10:46:15;;;;;;;14.28;10.70;;;;;;;5.06;63.44;95051.98;827907;71;30719;-76
2022/01/27 11:01:09;;;;;;;14.30;10.93;;;;;;;5.73;60.75;95034.88;833261;71;30405;-78
2022/01/27 11:16:20;;;;;;;8.90;8.00;;;;;;;6.62;57.31;95028.46;833962;71;31865;-77
2022/01/27 11:31:29;;;;;;;8.38;7.17;;;;;;;6.64;55.29;95017.02;827630;71;32260;-80
2022/01/27 11:46:32;;;;;;;10.50;8.00;;;;;;;6.98;54.34;94996.64;833480;71;28732;-76
2022/01/27 12:01:18;;;;;;;10.15;7.22;;;;;;;6.58;52.88;95002.62;827811;71;30616;-78
2022/01/27 12:46:14;;;;;;;9.95;8.18;;;;;;;7.42;50.16;94961.88;827145;71;31784;-78
2022/01/27 13:01:11;;;;;;;9.63;7.65;;;;;;;6.80;50.48;94944.36;829613;71;28813;-79
2022/01/27 13:16:17;;;;;;;10.90;8.03;;;;;;;6.23;51.41;94949.70;834410;71;29221;-77
2022/01/27 13:31:13;;;;;;;11.12;8.98;;;;;;;5.44;53.01;94950.23;827595;71;28758;-77
2022/01/27 13:46:32;;;;;;;14.40;9.60;;;;;;;4.64;55.72;94970.00;827696;71;31729;-76
2022/01/27 14:16:09;;;;;;;17.98;11.53;;;;;;;3.41;60.15;94951.12;827431;71;29339;-77
2022/01/27 14:31:08;;;;;;;16.50;10.63;;;;;;;3.31;61.28;94976.86;833659;71;28645;-76
2022/01/27 14:46:15;;;;;;;19.82;11.70;;;;;;;3.00;63.26;94976.22;834730;71;30444;-78
2022/01/27 15:01:15;;;;;;;19.87;12.05;;;;;;;2.84;64.09;94971.24;826849;71;32837;-78
2022/01/27 15:31:13;;;;;;;21.10;13.18;;;;;;;4.22;63.42;94963.94;827657;71;28801;-76
2022/01/27 15:46:15;;;;;;;27.37;14.93;;;;;;;2.74;64.28;94967.92;827392;71;32743;-83
2022/01/27 16:01:10;;;;;;;26.07;15.23;;;;;;;1.74;65.72;94964.80;823808;71;29786;-84
2022/01/27 16:16:15;;;;;;;27.90;16.00;;;;;;;1.30;67.05;94983.55;826710;71;33199;-77
2022/01/27 16:31:13;;;;;;;31.57;18.20;;;;;;;0.88;67.95;94991.95;834837;71;31985;-80
2022/01/27 16:46:10;;;;;;;46.75;23.83;;;;;;;0.56;69.15;95009.34;835583;71;28230;-79
2022/01/27 17:01:13;;;;;;;52.88;24.72;;;;;;;0.35;69.13;94999.68;833757;71;32586;-81
2022/01/27 17:16:14;;;;;;;21.05;13.28;;;;;;;0.18;69.79;94991.68;827722;71;33357;-78
2022/01/27 17:31:29;;;;;;;20.32;13.13;;;;;;;0.08;70.00;94990.06;833551;71;33943;-80
2022/01/27 17:46:10;;;;;;;27.10;16.95;;;;;;;0.02;69.58;94978.48;828197;71;30815;-80
2022/01/27 18:01:11;;;;;;;23.18;13.90;;;;;;;-0.09;69.49;94969.64;827611;71;31986;-81
2022/01/27 18:16:25;;;;;;;25.60;15.95;;;;;;;-0.19;69.66;94950.76;833516;71;30851;-81
2022/01/27 18:31:10;;;;;;;26.40;14.78;;;;;;;-0.26;70.14;94934.56;834077;71;30303;-81
2022/01/27 18:46:20;;;;;;;32.58;18.35;;;;;;;-0.34;69.39;94943.83;828199;71;33434;-83
2022/01/27 19:01:09;;;;;;;34.23;19.48;;;;;;;-0.51;69.64;94950.73;833830;71;30291;-80
2022/01/27 19:16:10;;;;;;;31.62;17.87;;;;;;;-0.63;70.72;94938.22;833923;71;30281;-82
2022/01/27 19:31:16;;;;;;;31.35;19.25;;;;;;;-0.69;70.72;94928.73;817517;71;32800;-80
2022/01/27 19:46:14;;;;;;;33.15;19.07;;;;;;;-0.79;71.07;94933.55;827735;71;32325;-82
2022/01/27 20:01:16;;;;;;;31.52;18.32;;;;;;;-0.91;71.57;94923.09;827053;71;32718;-80
2022/01/27 20:16:10;;;;;;;29.65;16.95;;;;;;;-1.09;71.19;94892.89;830011;71;30098;-80
2022/01/27 20:31:09;;;;;;;112.40;56.20;;;;;;;-1.23;71.56;94885.71;827972;71;29779;-82
2022/01/27 20:32:13;;;;;;;121.10;67.20;;;;;;;-1.29;71.43;94888.59;808333;73;26299;-83
2022/01/27 21:16:15;;;;;;;53.10;25.90;;;;;;;-1.57;72.96;94878.58;828008;71;32727;-80
2022/01/27 21:31:13;;;;;;;39.50;21.12;;;;;;;-1.55;72.37;94885.60;822607;71;31036;-82
2022/01/27 21:46:10;;;;;;;31.52;17.02;;;;;;;-1.67;72.33;94864.06;829997;70;30594;-81
2022/01/27 22:01:09;;;;;;;30.62;18.57;;;;;;;-1.76;73.02;94863.97;820941;71;30345;-77
2022/01/27 22:16:12;;;;;;;35.17;19.73;;;;;;;-1.74;72.90;94847.87;828153;71;30309;-83
2022/01/27 22:31:09;;;;;;;45.10;24.77;;;;;;;-1.91;73.28;94860.36;829871;70;30274;-83
2022/01/27 22:46:09;;;;;;;41.53;23.67;;;;;;;-1.98;73.48;94848.80;830032;71;30287;-80
2022/01/27 23:01:09;;;;;;;42.13;23.12;;;;;;;-1.89;73.85;94850.66;828149;71;30819;-81
2022/01/27 23:31:17;;;;;;;40.90;23.20;;;;;;;-1.91;73.37;94817.43;816130;71;32914;-79
